createdAt,value
2022-09-25T00:00:51.789Z,11.64
2022-09-25T00:01:51.761Z,11.54
2022-09-25T00:02:51.781Z,11.57
2022-09-25T00:03:51.704Z,11.65
2022-09-25T00:04:51.686Z,11.55
2022-09-25T00:05:51.673Z,11.69
2022-09-25T00:06:51.657Z,11.73
2022-09-25T00:07:51.650Z,11.70
2022-09-25T00:08:51.635Z,11.60
2022-09-25T00:09:51.638Z,11.65
2022-09-25T00:10:51.594Z,11.70
2022-09-25T00:11:51.579Z,11.62
2022-09-25T00:12:51.562Z,11.64
2022-09-25T00:13:51.548Z,11.58
2022-09-25T00:14:51.631Z,11.67
2022-09-25T00:15:51.547Z,11.67
2022-09-25T00:16:51.570Z,11.57
2022-09-25T00:17:51.492Z,11.47
2022-09-25T00:18:51.480Z,11.58
2022-09-25T00:19:51.483Z,11.54
2022-09-25T00:20:51.484Z,11.64
2022-09-25T00:21:51.425Z,11.67
2022-09-25T00:22:51.411Z,11.67
2022-09-25T00:23:51.399Z,11.60
2022-09-25T00:24:51.407Z,11.55
2022-09-25T00:25:51.367Z,11.62
2022-09-25T00:26:51.352Z,11.60
2022-09-25T00:27:51.353Z,11.64
2022-09-25T00:28:51.318Z,11.64
2022-09-25T00:29:51.325Z,11.65
2022-09-25T00:30:51.344Z,11.65
2022-09-25T00:31:51.293Z,11.51
2022-09-25T00:32:51.338Z,11.64
2022-09-25T00:33:51.254Z,11.64
2022-09-25T00:34:51.261Z,11.67
2022-09-25T00:35:51.231Z,11.64
2022-09-25T00:36:51.196Z,11.64
2022-09-25T00:37:51.185Z,11.60
2022-09-25T00:38:51.381Z,11.64
2022-09-25T00:39:51.160Z,11.69
2022-09-25T00:40:51.375Z,11.65
2022-09-25T00:41:51.128Z,11.69
2022-09-25T00:42:51.120Z,11.64
2022-09-25T00:43:51.130Z,11.65
2022-09-25T00:44:51.079Z,11.73
2022-09-25T00:45:51.130Z,11.70
2022-09-25T00:46:51.044Z,11.64
2022-09-25T00:47:51.030Z,11.61
2022-09-25T00:48:51.040Z,11.57
2022-09-25T00:49:51.008Z,11.58
2022-09-25T00:50:51.035Z,11.58
2022-09-25T00:51:54.653Z,11.57
2022-09-25T00:52:50.952Z,11.57
2022-09-25T00:53:50.941Z,11.58
2022-09-25T00:54:50.922Z,11.58
2022-09-25T00:55:50.918Z,11.61
2022-09-25T00:56:50.923Z,11.57
2022-09-25T00:57:50.885Z,11.55
2022-09-25T00:58:50.866Z,11.58
2022-09-25T00:59:50.851Z,11.55
2022-09-25T01:00:50.897Z,11.57
2022-09-25T01:01:50.880Z,11.47
2022-09-25T01:02:50.862Z,11.57
2022-09-25T01:03:50.785Z,11.61
2022-09-25T01:04:50.766Z,11.61
2022-09-25T01:05:50.967Z,11.58
2022-09-25T01:06:50.744Z,11.57
2022-09-25T01:07:50.734Z,11.54
2022-09-25T01:08:50.707Z,11.46
2022-09-25T01:09:50.716Z,11.42
2022-09-25T01:10:50.857Z,11.43
2022-09-25T01:11:51.091Z,11.49
2022-09-25T01:12:50.653Z,11.37
2022-09-25T01:13:50.696Z,11.44
2022-09-25T01:14:50.614Z,11.43
2022-09-25T01:15:50.602Z,11.42
2022-09-25T01:16:50.643Z,11.36
2022-09-25T01:17:50.571Z,11.40
2022-09-25T01:18:50.672Z,11.39
2022-09-25T01:19:52.922Z,11.36
2022-09-25T01:20:50.550Z,11.36
2022-09-25T01:21:50.514Z,11.39
2022-09-25T01:22:50.495Z,11.27
2022-09-25T01:23:50.483Z,11.36
2022-09-25T01:24:50.501Z,11.25
2022-09-25T01:25:50.449Z,11.32
2022-09-25T01:26:50.436Z,11.35
2022-09-25T01:27:50.432Z,11.32
2022-09-25T01:28:50.444Z,11.40
2022-09-25T01:29:50.861Z,11.37
2022-09-25T01:30:50.418Z,11.40
2022-09-25T01:31:50.359Z,11.46
2022-09-25T01:32:50.338Z,11.52
2022-09-25T01:33:50.328Z,11.43
2022-09-25T01:34:50.312Z,11.47
2022-09-25T01:35:50.488Z,11.49
2022-09-25T01:36:50.340Z,11.52
2022-09-25T01:37:50.518Z,11.52
2022-09-25T01:38:50.251Z,11.51
2022-09-25T01:39:50.372Z,11.54
2022-09-25T01:40:50.299Z,11.49
2022-09-25T01:41:50.210Z,11.51
2022-09-25T01:42:50.192Z,11.52
2022-09-25T01:43:50.176Z,11.46
2022-09-25T01:44:50.154Z,11.47
2022-09-25T01:45:50.271Z,11.49
2022-09-25T01:46:50.121Z,11.40
2022-09-25T01:47:50.110Z,11.42
2022-09-25T01:48:50.097Z,11.44
2022-09-25T01:49:50.084Z,11.37
2022-09-25T01:50:50.060Z,11.42
2022-09-25T01:51:50.073Z,11.47
2022-09-25T01:52:50.050Z,11.33
2022-09-25T01:53:50.019Z,11.35
